Tohatchi, NM (87325)

11:20 AM MST on February 09, 2016 (GMT -0700)
Gallup Municipal | | Change Station
CLOSE
Current Station
Airport
Location: Gallup,
Elevation: 6470 ft
Nearby Weather Stations

Elev 6470 ft 35.51 °N, 108.79 °W | Updated 27 minutes ago

Clear
Clear
43 °F
Feels Like 41 °F
N
4
Wind Variable Wind from Variable

Today
High -- | Low -- °F
--% Chance of Precip.
Yesterday
High -- | Low -- °F
Precip. -- in
Pressure 30.49 in
Visibility 10.0 miles
Clouds Clear
Windchill 41 °F
Dew Point 21 °F
Humidity 42%
Rainfall 0.00 in
Snow Depth Not available.
7:08 AM 5:49 PM
New Moon, 2% visible
METAR KGUP 091753Z AUTO VRB03KT 10SM CLR 06/M06 A3047 RMK AO2 SLP323 I6000 T00611061 10061 21100 50003
Pressure 30.49 in
Visibility 10.0 miles
Clouds Clear
Windchill 41 °F
Dew Point 21 °F
Humidity 42%
Rainfall 0.00 in
Snow Depth Not available.
7:08 AM 5:49 PM
New Moon, 2% visible
METAR KGUP 091753Z AUTO VRB03KT 10SM CLR 06/M06 A3047 RMK AO2 SLP323 I6000 T00611061 10061 21100 50003

10-Day Weather Forecast

Almanac

Astronomy

Feb. 09, 2016 Rise Set
Actual Time
Civil Twilight
Nautical Twilight
Astronomical Twilight
Moon
Length of Visible Light
Length of Day
Tomorrow will be .
, % of the Moon is Illuminated

Today's Extremes

State Highs State Lows

Community

WunderPhotos

Upload Photos

1,891,651 photos uploaded!

WunderBlog® & News

Nearby

Air Quality

  Air Quality AQ Index Pollutant
Not available.

Snow Depth

Station Depth Elevation

Earthquake Activity

City Distance Mag. Time & Date
Minimum magnitude displayed is 2.5.

Coastal Water Temperatures

Place Temperature

Stations

Nearby Weather Stations

Station Location Temp. Windchill Dew Point Humidity Wind Precip. Elev Updated Type
                   

Watches & Warnings

There are currently no watches in effect.